Time;durP1;ratioP1;P1;durP2;ratioP2;P2;SDS_P1;SDS_P2;PMS_P1;PMS_P2;Temp;Humidity;BMP_temperature;BMP_pressure;BME280_temperature;BME280_humidity;BME280_pressure;Samples;Min_cycle;Max_cycle;Signal;HPM_P1;HPM_P2
2023/06/08 00:02:00;;;;;;;0.50;0.50;;;;;;;16.78;100.00;99505.00;4972428;28;20683;-69
2023/06/08 00:04:30;;;;;;;0.50;0.50;;;;;;;16.66;100.00;99513.44;4972355;28;20207;-69
2023/06/08 00:06:57;;;;;;;0.60;0.60;;;;;;;16.61;100.00;99502.47;4972678;28;20208;-69
2023/06/08 00:09:26;;;;;;;0.93;0.93;;;;;;;16.64;100.00;99504.91;4972818;28;20656;-69
2023/06/08 00:11:55;;;;;;;0.53;0.53;;;;;;;16.42;100.00;99495.72;4973187;28;20734;-69
2023/06/08 00:14:22;;;;;;;0.50;0.50;;;;;;;16.46;100.00;99498.09;4972357;28;20237;-69
2023/06/08 00:16:49;;;;;;;0.40;0.40;;;;;;;16.49;100.00;99505.69;4972659;28;20675;-69
2023/06/08 00:19:16;;;;;;;0.43;0.43;;;;;;;16.33;100.00;99499.63;4972569;28;20199;-69
2023/06/08 00:21:43;;;;;;;0.50;0.50;;;;;;;16.32;100.00;99495.38;4972716;28;20203;-69
2023/06/08 00:24:09;;;;;;;0.60;0.60;;;;;;;16.42;100.00;99499.16;4971725;28;20690;-69
2023/06/08 00:26:38;;;;;;;0.50;0.50;;;;;;;16.35;100.00;99500.38;4972118;28;20294;-69
2023/06/08 00:29:05;;;;;;;0.50;0.50;;;;;;;16.39;100.00;99496.72;4972300;28;20207;-69
2023/06/08 00:31:32;;;;;;;0.60;0.60;;;;;;;16.42;100.00;99501.75;4972000;28;20691;-69
2023/06/08 00:33:58;;;;;;;0.50;0.50;;;;;;;16.44;100.00;99494.75;4972618;28;20687;-69
2023/06/08 00:36:25;;;;;;;0.60;0.60;;;;;;;16.44;100.00;99494.75;4971765;28;20199;-69
2023/06/08 00:38:52;;;;;;;0.60;0.60;;;;;;;16.38;100.00;99484.69;4972083;28;20254;-69
2023/06/08 00:41:18;;;;;;;0.60;0.60;;;;;;;16.50;100.00;99494.44;4971727;28;20199;-70
2023/06/08 00:43:47;;;;;;;0.60;0.60;;;;;;;16.54;100.00;99490.72;4972265;28;20580;-70
2023/06/08 00:46:15;;;;;;;0.93;0.93;;;;;;;16.59;100.00;99488.78;4971809;28;20270;-69
2023/06/08 00:48:42;;;;;;;0.50;0.50;;;;;;;16.66;100.00;99492.72;4971939;28;20694;-69
2023/06/08 00:51:09;;;;;;;0.57;0.57;;;;;;;16.55;100.00;99476.91;4971326;28;20686;-69
2023/06/08 00:53:37;;;;;;;0.47;0.47;;;;;;;16.62;100.00;99487.78;4971773;28;20220;-69
2023/06/08 00:56:06;;;;;;;0.43;0.43;;;;;;;16.66;100.00;99491.88;4971815;28;20208;-69
2023/06/08 00:58:37;;;;;;;0.87;0.57;;;;;;;16.72;100.00;99494.97;4971709;28;20210;-69
2023/06/08 01:01:11;;;;;;;0.40;0.40;;;;;;;16.78;100.00;99489.47;4971132;28;20319;-69
2023/06/08 01:03:38;;;;;;;0.70;0.70;;;;;;;16.85;100.00;99483.97;4971827;28;20203;-70
2023/06/08 01:06:08;;;;;;;0.57;0.57;;;;;;;16.88;100.00;99494.16;4971766;28;20579;-69
2023/06/08 01:08:47;;;;;;;0.33;0.33;;;;;;;16.90;100.00;99492.34;4971274;28;20214;-69
2023/06/08 01:11:19;;;;;;;0.50;0.50;;;;;;;16.94;100.00;99483.44;4971335;28;20309;-70
2023/06/08 01:13:53;;;;;;;0.50;0.50;;;;;;;16.98;100.00;99485.81;4971610;28;20204;-69
2023/06/08 01:16:24;;;;;;;0.73;0.73;;;;;;;16.99;100.00;99495.25;4971132;28;20211;-69
2023/06/08 01:18:58;;;;;;;0.60;0.60;;;;;;;17.02;100.00;99496.84;4971546;28;20203;-69
2023/06/08 01:21:42;;;;;;;0.50;0.50;;;;;;;17.03;99.86;99482.94;4970511;28;20206;-70
2023/06/08 01:24:14;;;;;;;0.60;0.60;;;;;;;17.04;99.30;99492.38;4971057;28;20261;-70
2023/06/08 01:26:42;;;;;;;0.33;0.33;;;;;;;16.95;99.17;99479.94;4971564;28;20322;-70
2023/06/08 01:29:09;;;;;;;0.50;0.50;;;;;;;16.89;99.65;99488.06;4971106;28;20215;-69
2023/06/08 01:31:37;;;;;;;0.77;0.57;;;;;;;16.82;99.70;99486.72;4970795;28;20219;-69
2023/06/08 01:34:04;;;;;;;0.50;0.50;;;;;;;16.77;99.83;99492.97;4970854;28;20199;-70
2023/06/08 01:36:40;;;;;;;0.50;0.50;;;;;;;16.76;100.00;99491.31;4970399;28;20310;-70
2023/06/08 01:39:18;;;;;;;0.50;0.50;;;;;;;16.72;99.90;99484.63;4969657;28;20257;-70
2023/06/08 01:41:48;;;;;;;0.50;0.50;;;;;;;16.65;100.00;99472.94;4970771;28;20270;-70
2023/06/08 01:44:20;;;;;;;0.57;0.57;;;;;;;16.66;100.00;99482.38;4971143;28;20723;-70
2023/06/08 01:46:55;;;;;;;0.40;0.40;;;;;;;16.69;100.00;99487.38;4970861;28;20207;-70
2023/06/08 01:49:26;;;;;;;1.27;1.27;;;;;;;16.70;100.00;99485.63;4970858;28;20695;-70
2023/06/08 01:51:53;;;;;;;0.50;0.50;;;;;;;16.51;100.00;99456.44;4970569;28;20651;-70
2023/06/08 01:54:22;;;;;;;0.77;0.77;;;;;;;16.56;100.00;99475.19;4970831;28;20268;-70
2023/06/08 01:56:49;;;;;;;0.50;0.50;;;;;;;16.55;100.00;99484.69;4971337;28;20769;-69
2023/06/08 01:59:16;;;;;;;0.60;0.60;;;;;;;16.59;100.00;99493.13;4970804;28;20203;-69
2023/06/08 02:01:43;;;;;;;0.50;0.50;;;;;;;16.53;100.00;99483.06;4970646;28;20207;-69
2023/06/08 02:04:09;;;;;;;0.50;0.50;;;;;;;16.60;100.00;99494.81;4970515;28;20254;-69
2023/06/08 02:06:36;;;;;;;0.60;0.60;;;;;;;16.59;100.00;99483.63;4971195;28;20602;-70
2023/06/08 02:09:03;;;;;;;0.60;0.60;;;;;;;16.60;100.00;99484.44;4969467;28;20211;-69
2023/06/08 02:11:31;;;;;;;0.80;0.80;;;;;;;16.56;100.00;99488.94;4970369;28;20257;-70
2023/06/08 02:13:58;;;;;;;0.60;0.60;;;;;;;16.58;100.00;99487.09;4970341;28;20218;-69
2023/06/08 02:16:25;;;;;;;0.80;0.80;;;;;;;16.59;100.00;99481.03;4970407;28;20219;-70
2023/06/08 02:18:52;;;;;;;0.53;0.53;;;;;;;16.60;100.00;99485.28;4969073;28;20208;-69
2023/06/08 02:21:20;;;;;;;1.20;1.20;;;;;;;16.57;100.00;99488.03;4970307;28;20203;-70
2023/06/08 02:23:47;;;;;;;0.40;0.40;;;;;;;16.54;100.00;99482.97;4970463;28;20206;-69
2023/06/08 02:26:16;;;;;;;0.40;0.40;;;;;;;16.55;100.00;99487.28;4958681;28;20235;-70
2023/06/08 02:28:44;;;;;;;0.40;0.40;;;;;;;16.51;100.00;99485.72;4951459;29;20209;-70
2023/06/08 02:31:11;;;;;;;0.40;0.40;;;;;;;16.49;100.00;99482.41;4951620;28;20703;-70
2023/06/08 02:33:38;;;;;;;0.50;0.50;;;;;;;16.44;100.00;99476.63;4952741;28;20211;-70
2023/06/08 02:36:06;;;;;;;0.67;0.67;;;;;;;16.38;100.00;99474.34;4954050;28;20738;-70
2023/06/08 02:38:32;;;;;;;0.60;0.60;;;;;;;16.34;100.00;99472.84;4951249;29;20238;-70
2023/06/08 02:41:00;;;;;;;0.60;0.60;;;;;;;16.34;100.00;99472.84;4950983;28;20214;-69
2023/06/08 02:43:26;;;;;;;0.50;0.50;;;;;;;16.31;100.00;99473.03;4950240;29;20219;-70
2023/06/08 02:45:55;;;;;;;0.57;0.57;;;;;;;16.33;100.00;99476.34;4951084;29;20200;-70
2023/06/08 02:48:23;;;;;;;0.70;0.70;;;;;;;16.35;100.00;99479.69;4952673;28;20216;-70
2023/06/08 02:50:50;;;;;;;0.40;0.40;;;;;;;16.35;100.00;99478.88;4954274;29;20680;-70
2023/06/08 02:53:17;;;;;;;0.60;0.60;;;;;;;16.38;100.00;99484.69;4955229;28;20248;-70
2023/06/08 02:55:43;;;;;;;0.60;0.60;;;;;;;16.41;100.00;99483.72;4955340;28;20216;-70
2023/06/08 02:58:10;;;;;;;0.97;0.60;;;;;;;16.41;100.00;99481.13;4955802;28;20739;-70
2023/06/08 03:00:37;;;;;;;0.67;0.67;;;;;;;16.42;100.00;99481.03;4955153;28;20664;-70
2023/06/08 03:03:05;;;;;;;0.90;0.90;;;;;;;16.38;100.00;99474.34;4957148;28;20208;-70
2023/06/08 03:05:34;;;;;;;0.60;0.60;;;;;;;16.43;100.00;99480.13;4955648;28;20208;-69
2023/06/08 03:08:01;;;;;;;0.53;0.53;;;;;;;16.45;100.00;99483.47;4955070;29;20200;-70
2023/06/08 03:10:27;;;;;;;0.40;0.40;;;;;;;16.45;100.00;99473.13;4953773;28;20999;-70
2023/06/08 03:12:54;;;;;;;0.60;0.60;;;;;;;16.47;100.00;99478.22;4950876;28;20226;-70
2023/06/08 03:15:23;;;;;;;0.50;0.50;;;;;;;16.50;100.00;99489.25;4954420;28;20208;-69
2023/06/08 03:17:51;;;;;;;0.40;0.40;;;;;;;16.50;100.00;99488.41;4954603;28;20211;-70
2023/06/08 03:20:19;;;;;;;0.50;0.50;;;;;;;16.50;100.00;99491.84;4953643;28;20645;-69
2023/06/08 03:22:47;;;;;;;0.53;0.53;;;;;;;16.53;100.00;99494.25;4949673;28;20211;-70
2023/06/08 03:25:16;;;;;;;0.70;0.70;;;;;;;16.57;100.00;99495.81;4953508;28;20255;-70
2023/06/08 03:27:43;;;;;;;0.57;0.57;;;;;;;16.60;100.00;99485.28;4954259;28;20290;-70
2023/06/08 03:30:11;;;;;;;0.33;0.33;;;;;;;16.66;100.00;99494.47;4954369;28;20235;-70
2023/06/08 03:32:38;;;;;;;0.40;0.40;;;;;;;16.63;100.00;99485.13;4954472;29;20715;-70
2023/06/08 03:35:06;;;;;;;0.60;0.60;;;;;;;16.67;100.00;99491.78;4954013;28;20672;-70
2023/06/08 03:37:34;;;;;;;0.50;0.50;;;;;;;16.69;100.00;99489.97;4955678;28;20296;-70
2023/06/08 03:40:01;;;;;;;0.47;0.47;;;;;;;16.73;100.00;99483.72;4954183;28;20208;-70
2023/06/08 03:42:28;;;;;;;0.60;0.60;;;;;;;16.87;100.00;99487.28;4953730;29;20203;-70
2023/06/08 03:44:55;;;;;;;0.50;0.50;;;;;;;16.96;100.00;99487.66;4954719;28;20240;-69
2023/06/08 03:47:21;;;;;;;0.53;0.53;;;;;;;17.06;100.00;99486.19;4956707;28;20231;-70
2023/06/08 03:49:48;;;;;;;0.50;0.50;;;;;;;17.19;100.00;99499.31;4953972;28;20211;-70
2023/06/08 03:52:15;;;;;;;0.50;0.50;;;;;;;17.28;100.00;99494.47;4952950;28;20275;-70
2023/06/08 03:54:44;;;;;;;0.53;0.53;;;;;;;17.41;100.00;99493.78;4953349;28;20200;-70
2023/06/08 03:57:11;;;;;;;0.60;0.60;;;;;;;17.52;100.00;99497.41;4953253;28;20640;-70
2023/06/08 03:59:38;;;;;;;0.60;0.60;;;;;;;17.67;100.00;99501.75;4952866;28;20208;-70
2023/06/08 04:02:05;;;;;;;0.53;0.53;;;;;;;17.77;99.89;99508.09;4953171;28;20203;-70
2023/06/08 04:04:32;;;;;;;0.67;0.67;;;;;;;17.90;98.97;99507.41;4953505;29;20204;-70
2023/06/08 04:07:00;;;;;;;0.40;0.40;;;;;;;17.93;98.10;99496.84;4953519;28;20306;-69
2023/06/08 04:09:27;;;;;;;0.60;0.60;;;;;;;18.01;98.09;99511.03;4950951;28;20676;-70
2023/06/08 04:11:55;;;;;;;0.50;0.50;;;;;;;18.05;98.55;99503.91;4953055;28;20227;-70
2023/06/08 04:14:22;;;;;;;0.50;0.50;;;;;;;18.15;98.96;99505.88;4953129;28;20216;-70
2023/06/08 04:16:49;;;;;;;0.70;0.70;;;;;;;18.12;98.60;99489.66;4953328;28;20200;-70
2023/06/08 04:19:16;;;;;;;0.50;0.50;;;;;;;18.22;98.34;99514.13;4952834;29;20219;-70
2023/06/08 04:21:43;;;;;;;0.60;0.60;;;;;;;18.33;99.38;99515.13;4953777;28;20203;-70
2023/06/08 04:24:10;;;;;;;0.63;0.63;;;;;;;18.55;99.16;99511.25;4950409;28;20294;-70
2023/06/08 04:26:37;;;;;;;0.57;0.57;;;;;;;18.75;97.65;99506.53;4965594;28;20774;-70
2023/06/08 04:29:06;;;;;;;0.60;0.60;;;;;;;18.88;97.58;99517.00;4968086;28;20737;-70
2023/06/08 04:31:32;;;;;;;0.50;0.50;;;;;;;19.09;98.10;99512.22;4970913;28;20217;-70
2023/06/08 04:33:59;;;;;;;0.63;0.63;;;;;;;19.32;96.78;99514.19;4970892;28;20669;-70
2023/06/08 04:36:26;;;;;;;0.50;0.50;;;;;;;19.56;95.59;99519.59;4970858;28;20203;-69
2023/06/08 04:38:53;;;;;;;0.70;0.70;;;;;;;19.76;93.44;99514.78;4971360;28;20214;-70
2023/06/08 04:41:25;;;;;;;0.50;0.50;;;;;;;19.92;91.44;99518.03;4969460;28;20206;-69
2023/06/08 04:43:52;;;;;;;0.70;0.70;;;;;;;20.11;89.87;99524.59;4968831;28;20206;-70
2023/06/08 04:46:25;;;;;;;0.50;0.50;;;;;;;20.22;90.41;99522.94;4971072;28;20209;-70
2023/06/08 04:48:53;;;;;;;0.43;0.43;;;;;;;20.23;90.06;99513.34;4969539;28;20206;-70
2023/06/08 04:51:23;;;;;;;0.50;0.50;;;;;;;20.41;89.48;99522.56;4963046;28;20206;-70
2023/06/08 04:53:50;;;;;;;0.53;0.53;;;;;;;20.32;89.89;99512.78;4969031;28;20207;-70
2023/06/08 04:56:18;;;;;;;0.50;0.50;;;;;;;20.55;89.57;99519.81;4970451;28;20211;-70
2023/06/08 04:58:46;;;;;;;0.47;0.47;;;;;;;20.67;88.02;99519.00;4970445;28;20206;-69
2023/06/08 05:01:12;;;;;;;0.60;0.60;;;;;;;20.71;88.26;99523.03;4965278;28;20362;-73
2023/06/08 05:03:44;;;;;;;0.80;0.80;;;;;;;20.86;87.56;99519.38;4968545;28;20206;-69
2023/06/08 05:06:11;;;;;;;0.57;0.57;;;;;;;20.99;86.34;99523.72;4966526;28;20203;-68
2023/06/08 05:08:37;;;;;;;0.37;0.37;;;;;;;21.06;86.91;99519.75;4969734;28;20315;-69
2023/06/08 05:11:04;;;;;;;0.50;0.50;;;;;;;21.23;87.59;99527.19;4970153;28;20624;-69
2023/06/08 05:13:31;;;;;;;0.70;0.70;;;;;;;21.40;85.08;99529.44;4967568;28;20270;-69
2023/06/08 05:15:58;;;;;;;0.50;0.50;;;;;;;21.58;85.16;99535.09;4969790;28;20218;-69
2023/06/08 05:18:25;;;;;;;0.50;0.50;;;;;;;21.73;83.77;99540.03;4967842;28;20210;-69
2023/06/08 05:20:53;;;;;;;0.47;0.47;;;;;;;21.86;82.53;99540.78;4970795;28;20257;-68
2023/06/08 05:23:20;;;;;;;0.40;0.40;;;;;;;22.03;82.13;99533.50;4971966;28;20223;-68
2023/06/08 05:25:47;;;;;;;0.40;0.40;;;;;;;22.09;80.38;99533.88;4965922;28;20241;-68
2023/06/08 05:28:14;;;;;;;0.77;0.77;;;;;;;22.23;79.55;99545.91;4960779;28;20207;-69
2023/06/08 05:30:41;;;;;;;0.60;0.60;;;;;;;22.45;78.49;99535.47;4966618;28;20285;-68
2023/06/08 05:33:08;;;;;;;0.67;0.67;;;;;;;22.58;77.21;99549.25;4968327;28;20595;-69
2023/06/08 05:35:34;;;;;;;0.50;0.50;;;;;;;22.75;77.03;99542.72;4968957;28;20199;-68
2023/06/08 05:38:03;;;;;;;0.30;0.30;;;;;;;22.86;77.22;99538.34;4969380;28;20594;-67
2023/06/08 05:40:29;;;;;;;0.50;0.50;;;;;;;23.05;77.26;99536.88;4969918;28;20207;-69
2023/06/08 05:42:56;;;;;;;0.37;0.37;;;;;;;23.18;74.53;99554.09;4968504;28;20206;-69
2023/06/08 05:45:23;;;;;;;0.40;0.40;;;;;;;23.42;75.01;99544.34;4968102;28;20563;-69
2023/06/08 05:47:50;;;;;;;0.40;0.40;;;;;;;23.61;74.92;99542.84;4967924;28;20207;-68
2023/06/08 05:50:17;;;;;;;0.37;0.37;;;;;;;23.81;72.20;99549.91;4966406;28;20215;-69
2023/06/08 05:52:43;;;;;;;0.40;0.40;;;;;;;23.97;71.59;99547.69;4967829;28;20286;-69
2023/06/08 05:55:12;;;;;;;0.33;0.33;;;;;;;23.99;71.62;99551.81;4970537;28;20210;-69
2023/06/08 05:57:39;;;;;;;0.50;0.50;;;;;;;24.01;70.19;99528.94;4969851;28;20671;-70
2023/06/08 06:00:10;;;;;;;0.50;0.50;;;;;;;24.08;70.92;99541.53;4968624;28;20214;-70
2023/06/08 06:02:37;;;;;;;0.67;0.67;;;;;;;24.28;71.81;99538.09;4950416;28;20254;-69
2023/06/08 06:05:04;;;;;;;0.40;0.40;;;;;;;24.57;71.68;99539.09;4965784;28;20207;-66
2023/06/08 06:07:31;;;;;;;0.40;0.40;;;;;;;24.71;71.22;99536.13;4968055;28;20207;-63
2023/06/08 06:09:58;;;;;;;0.50;0.50;;;;;;;24.80;68.71;99537.09;4971309;28;20211;-64
2023/06/08 06:12:26;;;;;;;0.40;0.40;;;;;;;24.89;66.92;99526.69;4971704;28;20252;-66
2023/06/08 06:14:55;;;;;;;0.40;0.40;;;;;;;24.85;69.02;99527.06;4967985;28;20214;-65
2023/06/08 06:17:23;;;;;;;0.33;0.33;;;;;;;24.66;68.04;99529.59;4968383;28;20214;-66
2023/06/08 06:19:50;;;;;;;0.37;0.37;;;;;;;24.68;68.10;99528.53;4970021;28;20642;-66
2023/06/08 06:22:17;;;;;;;0.60;0.60;;;;;;;24.66;68.27;99517.31;4969937;28;20667;-66
2023/06/08 06:24:44;;;;;;;0.73;0.40;;;;;;;24.64;67.67;99527.13;4973982;28;20206;-65
2023/06/08 06:27:12;;;;;;;0.50;0.50;;;;;;;24.60;68.68;99523.09;4955373;28;20643;-65
2023/06/08 06:29:40;;;;;;;0.27;0.27;;;;;;;24.53;69.33;99516.72;4953340;28;20243;-66
2023/06/08 06:32:08;;;;;;;0.73;0.73;;;;;;;24.61;69.78;99511.66;4954209;29;20227;-68
2023/06/08 06:34:35;;;;;;;0.30;0.30;;;;;;;24.90;66.70;99517.84;4953742;29;20212;-65
2023/06/08 06:37:01;;;;;;;0.40;0.40;;;;;;;25.00;67.47;99518.72;4953160;28;20204;-65
2023/06/08 06:39:28;;;;;;;0.30;0.30;;;;;;;24.80;65.65;99506.47;4949699;29;20215;-65
2023/06/08 06:41:56;;;;;;;0.40;0.40;;;;;;;24.87;67.77;99509.41;4950714;29;20275;-65
2023/06/08 06:44:22;;;;;;;0.30;0.30;;;;;;;24.76;67.01;99502.44;4951514;29;20675;-66
2023/06/08 06:46:51;;;;;;;0.37;0.37;;;;;;;25.11;67.14;99501.16;4953453;29;20216;-65
2023/06/08 06:49:17;;;;;;;0.30;0.30;;;;;;;25.53;68.79;99507.88;4950442;29;20286;-65
2023/06/08 06:51:44;;;;;;;0.30;0.30;;;;;;;25.80;65.52;99508.00;4949847;29;20207;-65
2023/06/08 06:54:11;;;;;;;0.47;0.47;;;;;;;25.84;64.69;99506.78;4952062;29;20703;-65
2023/06/08 06:56:38;;;;;;;0.30;0.30;;;;;;;25.88;64.48;99508.13;4949579;28;20215;-65
2023/06/08 06:59:05;;;;;;;0.47;0.47;;;;;;;25.94;63.18;99507.59;4953561;29;20259;-65
2023/06/08 07:01:35;;;;;;;0.50;0.50;;;;;;;25.90;62.58;99498.31;4953742;29;20633;-65
2023/06/08 07:04:04;;;;;;;0.30;0.30;;;;;;;26.08;62.52;99503.66;4955409;28;20668;-65
2023/06/08 07:06:32;;;;;;;1.17;1.17;;;;;;;25.66;63.75;99492.66;4948770;29;20677;-65
2023/06/08 07:08:59;;;;;;;0.40;0.40;;;;;;;25.66;62.12;99487.41;4951765;29;20207;-65
2023/06/08 07:11:26;;;;;;;0.80;0.80;;;;;;;25.45;62.43;99484.09;4950087;29;20622;-65
2023/06/08 07:13:52;;;;;;;0.87;0.57;;;;;;;25.48;62.53;99499.56;4952769;29;20621;-65
2023/06/08 07:16:21;;;;;;;0.20;0.20;;;;;;;25.24;64.35;99494.72;4952453;29;20204;-65
2023/06/08 07:18:48;;;;;;;0.30;0.30;;;;;;;25.32;62.18;99491.41;4951077;29;20200;-64
2023/06/08 07:21:19;;;;;;;0.33;0.33;;;;;;;25.44;63.70;99495.56;4951588;29;20220;-64
2023/06/08 07:23:47;;;;;;;0.30;0.30;;;;;;;25.69;64.69;99492.38;4951038;29;20196;-64
2023/06/08 07:26:14;;;;;;;1.30;1.23;;;;;;;25.79;63.48;99495.00;4965341;28;20322;-64
2023/06/08 07:28:41;;;;;;;0.30;0.30;;;;;;;25.96;62.09;99489.03;4972808;28;20208;-64
2023/06/08 07:31:08;;;;;;;2.53;0.67;;;;;;;25.98;63.66;99495.81;4972695;28;21801;-64
2023/06/08 07:33:35;;;;;;;0.37;0.37;;;;;;;26.21;62.13;99493.72;4971530;28;20219;-65
2023/06/08 07:36:02;;;;;;;0.30;0.30;;;;;;;26.28;59.99;99486.91;4972018;28;20203;-65
2023/06/08 07:38:30;;;;;;;0.30;0.30;;;;;;;26.11;61.21;99488.44;4971809;28;20250;-65
2023/06/08 07:40:57;;;;;;;0.53;0.53;;;;;;;26.11;64.55;99472.69;4972000;28;20723;-64
2023/06/08 07:43:23;;;;;;;0.40;0.40;;;;;;;26.35;63.13;99484.53;4972659;28;20227;-65
2023/06/08 07:45:50;;;;;;;0.30;0.30;;;;;;;26.68;63.82;99472.63;4968979;28;20207;-64
2023/06/08 07:48:17;;;;;;;0.33;0.33;;;;;;;26.76;59.77;99473.53;4973362;28;20295;-66
2023/06/08 07:50:44;;;;;;;0.30;0.30;;;;;;;26.85;60.02;99467.44;4974209;28;20203;-67
2023/06/08 07:53:12;;;;;;;0.30;0.30;;;;;;;26.87;59.97;99464.66;4973147;28;20230;-66
2023/06/08 07:55:40;;;;;;;0.50;0.50;;;;;;;27.10;60.00;99471.16;4973482;28;20254;-66
2023/06/08 07:58:08;;;;;;;0.30;0.30;;;;;;;27.28;59.53;99469.34;4972874;28;20211;-66
2023/06/08 08:00:35;;;;;;;0.47;0.47;;;;;;;27.52;58.77;99463.50;4973567;28;20200;-66
2023/06/08 08:03:03;;;;;;;0.40;0.40;;;;;;;27.49;58.23;99471.72;4977502;28;20595;-66
2023/06/08 08:05:30;;;;;;;0.40;0.40;;;;;;;27.48;58.78;99464.78;4973758;28;20200;-67
2023/06/08 08:07:56;;;;;;;0.43;0.43;;;;;;;27.48;58.35;99468.25;4973459;28;20262;-66
2023/06/08 08:10:23;;;;;;;0.60;0.60;;;;;;;27.48;56.31;99467.41;4973589;28;20258;-67
2023/06/08 08:12:51;;;;;;;0.20;0.20;;;;;;;27.64;57.76;99464.91;4972838;28;20235;-67
2023/06/08 08:15:18;;;;;;;0.37;0.37;;;;;;;27.54;57.09;99469.44;4970795;28;20263;-67
2023/06/08 08:17:45;;;;;;;0.60;0.60;;;;;;;27.64;57.23;99465.75;4974312;28;20659;-67
2023/06/08 08:20:13;;;;;;;0.30;0.30;;;;;;;27.75;58.43;99462.06;4967899;28;20684;-67
2023/06/08 08:22:39;;;;;;;0.37;0.37;;;;;;;28.00;57.70;99461.22;4970473;28;20211;-67
2023/06/08 08:25:07;;;;;;;0.30;0.30;;;;;;;27.81;56.39;99450.91;4969919;28;20670;-68
2023/06/08 08:27:34;;;;;;;0.30;0.30;;;;;;;27.82;57.27;99457.00;4969731;28;20214;-67
2023/06/08 08:30:02;;;;;;;0.30;0.30;;;;;;;27.96;57.83;99459.03;4969852;28;20208;-67
2023/06/08 08:32:29;;;;;;;0.40;0.40;;;;;;;27.63;56.97;99452.72;4970198;28;20294;-66
2023/06/08 08:34:56;;;;;;;0.40;0.40;;;;;;;27.91;56.87;99456.91;4970958;28;20476;-63
2023/06/08 08:37:23;;;;;;;0.40;0.40;;;;;;;27.99;56.12;99442.91;4972950;28;20266;-64
2023/06/08 08:39:49;;;;;;;0.30;0.30;;;;;;;27.55;57.33;99435.06;4972855;28;20203;-64
2023/06/08 08:42:22;;;;;;;0.50;0.50;;;;;;;27.51;57.77;99438.16;4972522;28;20208;-63
2023/06/08 08:44:54;;;;;;;0.43;0.43;;;;;;;27.79;55.75;99442.31;4972372;28;20200;-63
2023/06/08 08:47:24;;;;;;;0.40;0.40;;;;;;;27.66;56.01;99435.81;4970678;28;20210;-64
2023/06/08 08:49:57;;;;;;;0.30;0.30;;;;;;;27.80;55.95;99446.59;4972325;28;20227;-63
2023/06/08 08:52:26;;;;;;;0.50;0.50;;;;;;;27.81;55.42;99443.00;4971857;28;20207;-63
2023/06/08 08:54:55;;;;;;;0.30;0.30;;;;;;;27.38;54.86;99442.94;4971415;28;20230;-64
2023/06/08 08:57:22;;;;;;;0.50;0.50;;;;;;;27.41;56.59;99440.00;4972283;28;20278;-64
2023/06/08 08:59:49;;;;;;;0.53;0.50;;;;;;;27.20;57.48;99442.97;4972291;28;20209;-63
2023/06/08 09:02:16;;;;;;;0.40;0.40;;;;;;;27.44;57.76;99434.47;4972559;28;20211;-64
2023/06/08 09:04:45;;;;;;;0.40;0.40;;;;;;;27.25;54.86;99397.75;4972459;28;20196;-64
2023/06/08 09:07:12;;;;;;;0.37;0.37;;;;;;;27.18;54.23;99436.19;4972542;28;20203;-64
2023/06/08 09:09:38;;;;;;;0.30;0.30;;;;;;;27.11;55.62;99433.31;4972689;28;20196;-64
2023/06/08 09:12:06;;;;;;;0.30;0.30;;;;;;;27.39;56.80;99429.63;4972083;28;20204;-64
2023/06/08 09:14:33;;;;;;;0.30;0.30;;;;;;;27.55;56.14;99434.25;4974972;28;20238;-64
2023/06/08 09:16:59;;;;;;;0.30;0.30;;;;;;;27.63;56.12;99431.66;4972097;28;20908;-64
2023/06/08 09:19:26;;;;;;;0.20;0.20;;;;;;;27.80;56.21;99433.44;4972285;28;20660;-63
2023/06/08 09:21:55;;;;;;;0.47;0.47;;;;;;;27.51;54.53;99427.63;4972155;28;20310;-63
2023/06/08 09:24:22;;;;;;;0.30;0.30;;;;;;;27.36;54.56;99424.69;4972248;28;20200;-63
2023/06/08 09:26:51;;;;;;;0.60;0.60;;;;;;;27.21;55.56;99430.59;4976908;28;20232;-63
2023/06/08 09:29:32;;;;;;;0.40;0.40;;;;;;;27.35;57.58;99422.19;4971091;28;20286;-64
2023/06/08 09:32:00;;;;;;;0.30;0.30;;;;;;;27.64;59.27;99415.72;4972203;28;20282;-63
2023/06/08 09:34:29;;;;;;;0.97;0.97;;;;;;;28.02;56.64;99414.44;4971972;28;20338;-64
2023/06/08 09:37:07;;;;;;;0.50;0.50;;;;;;;27.65;54.36;99419.16;4971981;28;20199;-64
2023/06/08 09:39:41;;;;;;;0.33;0.33;;;;;;;27.29;57.20;99391.22;4966590;28;20221;-63
2023/06/08 09:42:08;;;;;;;0.30;0.30;;;;;;;27.53;54.43;99409.84;4971577;28;20569;-64
2023/06/08 09:44:35;;;;;;;0.30;0.30;;;;;;;27.50;55.07;99408.34;4972003;28;20588;-64
2023/06/08 09:47:21;;;;;;;0.40;0.40;;;;;;;27.55;57.13;99402.63;4972214;28;20195;-63
2023/06/08 09:49:48;;;;;;;0.50;0.50;;;;;;;27.87;54.93;99413.38;4968010;28;20210;-63
2023/06/08 09:52:19;;;;;;;0.40;0.40;;;;;;;27.75;53.97;99414.63;4971688;28;20200;-64
2023/06/08 09:54:47;;;;;;;0.30;0.30;;;;;;;27.76;55.26;99405.72;4971852;28;20222;-63
2023/06/08 09:57:15;;;;;;;0.30;0.30;;;;;;;27.87;52.68;99408.13;4973521;28;20643;-64
2023/06/08 09:59:46;;;;;;;0.20;0.20;;;;;;;27.67;52.93;99401.41;4978781;28;20261;-64
2023/06/08 10:02:33;;;;;;;0.23;0.23;;;;;;;27.69;54.44;99391.50;4983228;28;20569;-64
2023/06/08 10:05:05;;;;;;;0.50;0.50;;;;;;;28.00;56.69;99392.72;4977846;28;20203;-63
2023/06/08 10:07:36;;;;;;;0.40;0.40;;;;;;;28.17;55.85;99393.66;4978024;28;20254;-63
2023/06/08 10:10:10;;;;;;;0.40;0.40;;;;;;;28.07;54.62;99391.13;4978437;28;20282;-64
2023/06/08 10:12:37;;;;;;;0.63;0.63;;;;;;;28.02;56.43;99372.28;4978223;28;20207;-64
2023/06/08 10:15:06;;;;;;;0.33;0.33;;;;;;;28.02;56.20;99379.34;4977218;28;20226;-63
2023/06/08 10:17:34;;;;;;;0.43;0.40;;;;;;;28.30;56.03;99374.75;4977583;28;20285;-64
2023/06/08 10:20:01;;;;;;;0.40;0.40;;;;;;;28.27;54.01;99367.16;4977782;28;20289;-63
2023/06/08 10:22:29;;;;;;;0.40;0.40;;;;;;;28.25;55.58;99371.75;4977623;28;20203;-63
2023/06/08 10:24:57;;;;;;;0.30;0.30;;;;;;;28.36;57.31;99360.91;4977617;28;20206;-64
2023/06/08 10:27:32;;;;;;;0.30;0.30;;;;;;;28.43;55.58;99354.03;4977953;28;20233;-63
2023/06/08 10:30:03;;;;;;;0.30;0.30;;;;;;;28.43;55.49;99351.38;4976319;28;20282;-64
2023/06/08 10:32:31;;;;;;;0.30;0.30;;;;;;;28.43;54.72;99351.38;4978247;28;20206;-64
2023/06/08 10:34:58;;;;;;;0.20;0.20;;;;;;;28.20;54.25;99345.03;4976956;28;20261;-63
2023/06/08 10:37:30;;;;;;;0.37;0.37;;;;;;;28.35;53.70;99339.00;4978073;28;20291;-63
2023/06/08 10:40:00;;;;;;;0.30;0.30;;;;;;;28.43;54.48;99340.84;4977699;28;20671;-63
2023/06/08 10:42:27;;;;;;;0.33;0.33;;;;;;;28.10;54.14;99329.34;4974144;28;20263;-63
2023/06/08 10:44:55;;;;;;;0.30;0.30;;;;;;;28.42;54.86;99328.63;4975224;28;20721;-63
2023/06/08 10:47:22;;;;;;;0.40;0.40;;;;;;;28.63;54.82;99316.63;4973117;28;20293;-63
2023/06/08 10:49:57;;;;;;;0.40;0.40;;;;;;;28.54;52.16;99316.78;4977832;28;20199;-63
2023/06/08 10:52:24;;;;;;;0.20;0.20;;;;;;;28.43;52.63;99319.75;4973082;28;20230;-64
2023/06/08 10:54:55;;;;;;;0.20;0.20;;;;;;;28.48;52.90;99312.16;4978153;28;20702;-64
2023/06/08 10:57:44;;;;;;;0.40;0.40;;;;;;;28.28;52.97;99310.78;4978523;28;20210;-63
2023/06/08 11:00:45;;;;;;;0.30;0.30;;;;;;;28.27;52.68;99304.72;4978125;28;20266;-64
2023/06/08 11:03:17;;;;;;;0.30;0.30;;;;;;;28.24;52.52;99304.19;4977854;28;20238;-63
2023/06/08 11:05:49;;;;;;;0.50;0.50;;;;;;;27.92;51.69;99284.59;4978287;28;20244;-64
2023/06/08 11:08:16;;;;;;;0.50;0.50;;;;;;;27.89;52.97;99290.19;4977357;28;20199;-63
2023/06/08 11:10:42;;;;;;;0.30;0.30;;;;;;;28.05;52.99;99290.28;4975099;28;20209;-63
2023/06/08 11:13:13;;;;;;;0.30;0.30;;;;;;;28.14;52.48;99294.59;4974641;28;20626;-64
2023/06/08 11:15:41;;;;;;;0.30;0.30;;;;;;;28.02;51.85;99293.22;4977638;28;20229;-64
2023/06/08 11:18:09;;;;;;;0.40;0.40;;;;;;;28.15;53.35;99290.97;4974609;28;20203;-64
2023/06/08 11:20:38;;;;;;;0.30;0.30;;;;;;;28.25;51.97;99284.75;4973557;28;20199;-63
2023/06/08 11:23:07;;;;;;;0.20;0.20;;;;;;;28.12;51.28;99286.03;4974632;28;20199;-64
2023/06/08 11:25:35;;;;;;;0.20;0.20;;;;;;;28.06;51.58;99278.78;4973945;28;20234;-63
2023/06/08 11:28:02;;;;;;;0.40;0.40;;;;;;;28.20;52.36;99279.13;4974116;28;20257;-63
2023/06/08 11:30:33;;;;;;;0.33;0.33;;;;;;;28.17;53.46;99273.19;4973533;28;20453;-66
2023/06/08 11:33:01;;;;;;;0.35;0.35;;;;;;;28.52;51.57;99281.84;4973191;28;20450;-66
2023/06/08 11:35:27;;;;;;;0.30;0.30;;;;;;;28.63;50.45;99284.13;4974726;28;20690;-66
2023/06/08 11:37:56;;;;;;;0.40;0.40;;;;;;;28.55;51.65;99276.22;4975019;28;20560;-67